TimeCDT,TemperatureF,Dew PointF,Humidity,Sea Level PressureIn,VisibilityMPH,Wind Direction,Wind SpeedMPH,Gust SpeedMPH,PrecipitationIn,Events,Conditions,WindDirDegrees,DateUTC
12:10 AM,59.0,44.6,59,29.90,10.0,NE,4.6,-,N/A,,Clear,50,2012-10-04 05:10:00
12:29 AM,55.4,42.8,63,29.89,10.0,NE,5.8,-,N/A,,Clear,50,2012-10-04 05:29:00
12:49 AM,55.4,42.8,63,29.88,10.0,ENE,4.6,-,N/A,,Clear,60,2012-10-04 05:49:00
1:10 AM,55.4,42.8,63,29.88,10.0,ENE,4.6,-,N/A,,Clear,60,2012-10-04 06:10:00
1:29 AM,53.6,42.8,67,29.88,10.0,Calm,Calm,-,N/A,,Clear,0,2012-10-04 06:29:00
1:49 AM,53.6,41.0,62,29.87,10.0,NE,3.5,-,N/A,,Clear,50,2012-10-04 06:49:00
2:10 AM,53.6,42.8,67,29.86,10.0,NE,4.6,-,N/A,,Scattered Clouds,50,2012-10-04 07:10:00
2:29 AM,53.6,42.8,67,29.85,10.0,NE,4.6,-,N/A,,Mostly Cloudy,40,2012-10-04 07:29:00
2:49 AM,53.6,41.0,62,29.83,10.0,ENE,4.6,-,N/A,,Mostly Cloudy,60,2012-10-04 07:49:00
3:10 AM,53.6,41.0,62,29.82,10.0,NE,8.1,-,N/A,,Mostly Cloudy,50,2012-10-04 08:10:00
3:29 AM,53.6,41.0,62,29.81,10.0,NE,8.1,-,N/A,,Overcast,40,2012-10-04 08:29:00
3:49 AM,53.6,41.0,62,29.80,10.0,ESE,3.5,-,N/A,,Overcast,110,2012-10-04 08:49:00
4:10 AM,53.6,39.2,58,29.78,10.0,SE,6.9,-,N/A,,Mostly Cloudy,130,2012-10-04 09:10:00
4:29 AM,53.6,39.2,58,29.77,10.0,ENE,6.9,-,N/A,,Scattered Clouds,70,2012-10-04 09:29:00
4:49 AM,53.6,39.2,58,29.76,10.0,ENE,5.8,-,N/A,,Clear,60,2012-10-04 09:49:00
5:10 AM,53.6,41.0,62,29.75,10.0,ENE,6.9,-,N/A,,Clear,60,2012-10-04 10:10:00
5:29 AM,53.6,41.0,62,29.73,10.0,NE,5.8,-,N/A,,Clear,50,2012-10-04 10:29:00
5:49 AM,53.6,41.0,62,29.71,10.0,NE,6.9,-,N/A,,Clear,50,2012-10-04 10:49:00
6:10 AM,53.6,42.8,67,29.69,10.0,NE,6.9,-,N/A,,Scattered Clouds,50,2012-10-04 11:10:00
6:29 AM,53.6,42.8,67,29.68,10.0,ESE,3.5,-,N/A,,Scattered Clouds,120,2012-10-04 11:29:00
6:50 AM,59.0,46.4,63,29.67,10.0,SE,8.1,-,N/A,,Mostly Cloudy,130,2012-10-04 11:50:00
7:09 AM,59.0,44.6,59,29.65,10.0,ESE,8.1,-,N/A,,Overcast,120,2012-10-04 12:09:00
7:34 AM,59.0,44.6,59,29.65,10.0,SE,8.1,-,N/A,,Scattered Clouds,130,2012-10-04 12:34:00
7:50 AM,59.0,44.6,59,29.64,10.0,SE,11.5,-,N/A,,Scattered Clouds,130,2012-10-04 12:50:00
8:09 AM,59.0,44.6,59,29.64,10.0,SSE,12.7,19.6,N/A,,Clear,150,2012-10-04 13:09:00
8:29 AM,59.0,44.6,59,29.63,10.0,SSE,12.7,20.7,N/A,,Scattered Clouds,150,2012-10-04 13:29:00
8:50 AM,59.0,44.6,59,29.63,10.0,South,16.1,27.6,N/A,,Mostly Cloudy,170,2012-10-04 13:50:00
9:09 AM,55.4,42.8,63,29.64,10.0,South,17.3,25.3,N/A,,Overcast,180,2012-10-04 14:09:00
9:29 AM,51.8,42.8,71,29.66,10.0,South,20.7,28.8,N/A,,Overcast,180,2012-10-04 14:29:00
9:50 AM,50.0,41.0,71,29.65,10.0,South,11.5,19.6,N/A,,Overcast,180,2012-10-04 14:50:00
10:09 AM,50.0,41.0,71,29.65,10.0,South,12.7,21.9,N/A,,Overcast,170,2012-10-04 15:09:00
10:29 AM,50.0,42.8,76,29.64,10.0,South,17.3,23.0,N/A,,Overcast,170,2012-10-04 15:29:00
10:50 AM,48.2,41.0,76,29.64,10.0,South,21.9,28.8,N/A,,Overcast,180,2012-10-04 15:50:00
11:09 AM,46.4,42.8,87,29.64,2.0,South,13.8,23.0,N/A,Rain,Light Rain,180,2012-10-04 16:09:00
11:29 AM,46.4,42.8,87,29.64,2.5,SSW,13.8,23.0,N/A,,Drizzle,200,2012-10-04 16:29:00
11:50 AM,44.6,42.8,93,29.65,2.0,SSW,19.6,27.6,0.01,,Drizzle,200,2012-10-04 16:50:00
12:09 PM,42.8,41.0,93,29.67,2.5,SSW,19.6,32.2,N/A,,Overcast,210,2012-10-04 17:09:00
12:29 PM,42.8,41.0,93,29.68,1.8,SSW,21.9,27.6,N/A,Rain,Light Rain,200,2012-10-04 17:29:00
12:50 PM,41.0,37.4,87,29.70,2.0,SW,26.5,33.4,N/A,,Overcast,220,2012-10-04 17:50:00
1:09 PM,41.0,37.4,87,29.71,4.0,SW,17.3,29.9,N/A,,Overcast,230,2012-10-04 18:09:00
1:29 PM,41.0,35.6,81,29.71,10.0,SW,19.6,29.9,N/A,,Overcast,220,2012-10-04 18:29:00
1:50 PM,39.2,35.6,87,29.72,10.0,WSW,25.3,35.7,N/A,,Overcast,240,2012-10-04 18:50:00
2:09 PM,41.0,33.8,76,29.73,10.0,WSW,19.6,32.2,N/A,,Overcast,240,2012-10-04 19:09:00
2:30 PM,41.0,33.8,76,29.73,10.0,SW,19.6,33.4,N/A,,Overcast,230,2012-10-04 19:30:00
2:49 PM,41.0,33.8,76,29.74,10.0,WSW,21.9,29.9,N/A,,Overcast,240,2012-10-04 19:49:00
3:09 PM,41.0,32.0,70,29.75,10.0,SW,27.6,38.0,N/A,,Overcast,230,2012-10-04 20:09:00
3:30 PM,39.2,32.0,75,29.76,10.0,WSW,26.5,35.7,N/A,,Overcast,240,2012-10-04 20:30:00
3:49 PM,37.4,32.0,81,29.77,10.0,WSW,24.2,35.7,N/A,,Overcast,240,2012-10-04 20:49:00
4:09 PM,37.4,32.0,81,29.78,10.0,WSW,17.3,33.4,N/A,,Overcast,250,2012-10-04 21:09:00
4:30 PM,37.4,33.8,87,29.79,5.0,WSW,20.7,31.1,N/A,,Drizzle,250,2012-10-04 21:30:00
4:49 PM,37.4,33.8,87,29.79,7.0,WSW,21.9,27.6,N/A,,Overcast,240,2012-10-04 21:49:00
5:09 PM,37.4,33.8,87,29.80,5.0,WSW,21.9,27.6,N/A,Rain,Light Rain,250,2012-10-04 22:09:00
5:49 PM,37.4,33.8,87,29.81,10.0,WSW,16.1,28.8,0.01,,Overcast,240,2012-10-04 22:49:00
6:09 PM,37.4,33.8,87,29.82,5.0,WSW,15.0,35.7,N/A,Rain,Light Rain,250,2012-10-04 23:09:00
6:29 PM,37.4,33.8,87,29.82,2.5,West,17.3,24.2,0.01,Rain,Light Rain,260,2012-10-04 23:29:00
6:49 PM,35.6,32.0,87,29.82,4.0,WSW,15.0,21.9,0.01,Rain,Rain,250,2012-10-04 23:49:00
7:10 PM,35.6,32.0,87,29.83,7.0,WSW,16.1,29.9,N/A,Rain,Light Rain,250,2012-10-05 00:10:00
7:29 PM,35.6,32.0,87,29.83,10.0,West,19.6,31.1,N/A,,Mostly Cloudy,260,2012-10-05 00:29:00
7:49 PM,35.6,32.0,87,29.83,10.0,WSW,17.3,24.2,N/A,,Overcast,250,2012-10-05 00:49:00
8:10 PM,35.6,32.0,87,29.83,10.0,WSW,18.4,28.8,N/A,,Overcast,250,2012-10-05 01:10:00
8:29 PM,35.6,32.0,87,29.84,10.0,WSW,19.6,26.5,N/A,,Overcast,240,2012-10-05 01:29:00
8:49 PM,35.6,32.0,87,29.84,10.0,WSW,19.6,26.5,N/A,,Overcast,250,2012-10-05 01:49:00
9:10 PM,35.6,32.0,87,29.84,10.0,WSW,19.6,28.8,N/A,,Overcast,250,2012-10-05 02:10:00
9:29 PM,35.6,32.0,87,29.84,10.0,WSW,16.1,28.8,N/A,,Overcast,250,2012-10-05 02:29:00
9:49 PM,35.6,32.0,87,29.84,7.0,WSW,18.4,24.2,N/A,Snow,Light Snow,250,2012-10-05 02:49:00
10:10 PM,35.6,32.0,87,29.84,10.0,WSW,17.3,28.8,N/A,,Overcast,250,2012-10-05 03:10:00
10:29 PM,35.6,32.0,87,29.84,7.0,WSW,16.1,26.5,N/A,Snow,Light Snow,250,2012-10-05 03:29:00
10:50 PM,33.8,32.0,93,29.85,4.0,WSW,18.4,26.5,N/A,Snow,Light Snow,250,2012-10-05 03:50:00
11:09 PM,35.6,32.0,87,29.85,7.0,WSW,17.3,26.5,N/A,Snow,Light Snow,250,2012-10-05 04:09:00
11:29 PM,35.6,32.0,87,29.85,7.0,West,18.4,24.2,N/A,Snow,Light Snow,260,2012-10-05 04:29:00
11:50 PM,35.6,32.0,87,29.85,7.0,WSW,17.3,23.0,N/A,,Overcast,250,2012-10-05 04:50:00